Aérodrome :
LOGIN :

S'inscrire | Disclaimer

   EN    FR    IT 

 










Légende :    VFR   VFR Marginal   IFR   IFR Intensif   IFR Très Intensif
Visi : 
Plafond : 
>= 8 km
>= 3000ft
5 à 8 km
1000 à 3000 ft
1500m à 5 km
500 à 1000 ft
800 à 1500m
200 à 500 ft
< 800m
< 200 ft
Symboles :   Orages  Brouillard  Fortes neiges  Fortes précipitations  Vent > 20 kt
SIGMETs :   Divers  Orages  Givrage  Turbulence  Onde Orograph.  Cendres Volcan.







- Altitude de l'aérodrome : 79 ft
- Code IATA : NSY


LICZ - Sigonella (Mil) Catania

DERNIER METAR :
  • 280755Z 17003KT 4000 BR FEW020 22/16 Q1015 RMK FEW VIS MIN 4000 WIND THR28 /////KT WIND THR10 24002KT A2999 GRN

METARs EXPIRÉS :
  • 280655Z 06003KT 4000 BR SCT015 19/17 Q1014 RMK SCT VIS MIN 4000 WIND THR28 /////KT WIND THR10 16003KT A2997 GRN
  • 280555Z 30004KT 4000 BR FEW010 16/16 Q1015 RMK SCT SCT180 VIS MIN 4000 WIND THR28 /////KT WIND THR10 30004KT A2999 GRN
  • 280455Z 33003KT 3000 BR FEW010 15/15 Q1015 RMK SCT SCT180 VIS MIN 3000 WIND THR28 /////KT WIND THR10 33003KT A2999 YLO

TAF TAF LICZ
Valide du 28 à 06h jusqu'au 28 à 15h UTC


280500Z 2806/2815 VRB05KT 8000 FEW015
TEMPO 2806/2808 3000 BR FEW015
BECMG 2812/2814 10008KT
Pas de NOTAMs connus pour ce terrain.
5 SIGMETs publiés pour la FIR Roma (LIRR) :
 
Annulation du SIGMET 2 
LIRR SIGMET 6 VALID 280610/280900 LIIB
LIRR ROMA FIR CNL SIGMET 2 280500/280900=
Orages noyés dans la masse
LIRR SIGMET 5 VALID 280610/280900 LIIB- LIRR ROMA FIR EMBD TS FCST WI N4247 E01255 - N4036 E01516 - N3801 E01037 - N3909 E00828 - N4247 E01255 TOP FL350 STNR NC=
Givrage fort
LIRR SIGMET 4 VALID 280515/280900 LIIB- LIRR ROMA FIR SEV ICE OBS AT 0503Z WI N4157 E01211 - N4204 E01237 - N4130 E01305 - N4120 E01252 - N4157 E01211 FL100 STNR NC=
Turbulence forte
LIRR SIGMET 3 VALID 280515/280900 LIIB- LIRR ROMA FIR SEV TURB OBS AT 0450Z WI N4341 E01103 - N4330 E01101 - N4330 E01133 - N4341 E01132 - N4341 E01103 FL370 STNR NC=
SIGMET 2  ANNULÉ :
Orages noyés dans la masse
LIRR SIGMET 2 VALID 280500/280900 LIIB- LIRR ROMA FIR EMBD TS FCST WI N4128 E01401 - N4036 E01517 - N3801 E01038 - N3909 E00828 - N4128 E01401 TOP FL350 STNR NC=



MET'MAP, la Météo Aéronautique d'un coup d'oeil ! - Copyright ORBIFLY Décembre 2007 - Disclaimer

ORBIFLY MET'MAP TEAM :

Programmation & Développement : Alexandra Zaïnal
Conception & Développement : Baudouin d'Aumeries
Co-Programmation & Développement : Marc-Olivier Méhu
Soutien technique & logistique : Manuel Goepfert

Contact : metmap@orbifly.com




SOURCES & CREDITS :

   NOAA